x

9415115 - Pittsburg (suisun Bay), Ca (psbc1) Weather Station

5:00am - Tue 1st Sep 2015 All times are PDT. -7 hours from GMT.

  • Wind
    8mph, 13mph gusts
  • Air Temp 65°f
  • Sea Pressure 1009.7mb
  • 9415115 - Pittsburg (suisun Bay), Ca
  • 9415115 - Pittsburg (suisun Bay), Ca

More Historic Weather Station data

Upgrade to MSW Pro to gain access to the past 30 days of data for over 8000 Wavebouys and Weather Stations around the globe.

Join Pro

Comparision Forecast

View Surf forecast
   
Tue 09/01 5:00am 8 13 mph 1009.7mb 65f
4:54am 9 13 mph 1009.7mb 65f
4:48am 8 11 mph 1009.7mb 65f
4:42am 8 11 mph 1009.6mb 65f
4:36am 9 13 mph 1009.6mb 65f
4:30am 10 13 mph 1009.6mb 66f
4:24am 11 14 mph 1009.6mb 66f
4:18am 10 14 mph 1009.6mb 66f
4:12am 10 14 mph 1009.6mb 66f
4:06am 11 14 mph 1009.5mb 66f
4:00am 11 15 mph 1009.5mb 66f
3:54am 11 15 mph 1009.4mb 66f
3:48am 11 14 mph 1009.5mb 66f
3:42am 13 15 mph 1009.5mb 66f
3:36am 11 14 mph 1009.5mb 66f
3:30am 10 14 mph - 66f
3:24am 11 15 mph - 67f
3:18am 13 15 mph 1009.4mb 66f
3:12am 11 14 mph 1009.4mb 66f
3:06am 10 14 mph 1009.4mb 67f
3:00am 10 14 mph 1009.5mb 67f
2:54am 9 13 mph 1009.5mb 67f
2:48am  -  mph 1009.5mb 67f
2:42am  -  mph 1009.5mb 67f
2:36am  -  mph 1009.5mb 66f
2:30am 8 9 mph 1009.5mb 67f
2:24am 7 8 mph 1009.5mb 68f
2:18am 6 7 mph 1009.6mb 68f
2:12am 6 7 mph 1009.6mb 67f
2:06am 3 5 mph 1009.7mb 67f
2:00am 6 8 mph 1009.6mb 68f
1:54am 3 6 mph 1009.7mb 68f
1:48am 1 7 mph 1009.8mb 68f
1:42am 5 8 mph 1009.8mb 69f
1:36am 6 9 mph 1009.8mb 68f
1:30am 9 14 mph 1009.7mb 68f
1:24am 11 14 mph 1009.7mb 68f
1:18am 7 9 mph - 69f
1:12am 5 8 mph - 69f
1:06am 7 9 mph - 69f
1:00am 5 11 mph 1009.8mb 69f
12:54am 9 13 mph 1009.7mb 69f
12:48am 8 11 mph 1009.6mb 68f
12:42am 10 13 mph 1009.6mb 69f
12:36am 10 13 mph 1009.6mb 69f
12:30am 10 13 mph 1009.6mb 70f
12:24am 11 14 mph 1009.5mb 70f
12:18am 11 14 mph 1009.5mb 70f
12:12am 10 14 mph 1009.6mb 71f
12:06am 8 13 mph 1009.6mb 71f
12:00am 10 13 mph - 71f
Mon 08/31 11:54pm 9 13 mph - 71f
11:48pm 10 13 mph 1009.7mb 70f
11:42pm 10 13 mph 1009.8mb 71f
11:36pm 9 13 mph 1009.8mb 73f
11:30pm 7 10 mph 1009.8mb 73f
11:24pm 7 10 mph 1009.8mb 73f
11:18pm 8 10 mph 1009.8mb 73f
11:12pm 8 10 mph 1009.8mb 74f
11:06pm 6 9 mph 1009.7mb 73f
11:00pm 6 7 mph 1009.7mb 73f
10:54pm 7 8 mph 1009.8mb 73f
10:48pm 6 8 mph 1009.8mb 73f
10:42pm 3 5 mph 1009.8mb 74f
10:36pm 2 3 mph 1009.8mb 74f
10:30pm 2 6 mph 1009.8mb 74f
10:24pm 5 7 mph 1009.8mb 74f
10:18pm 6 9 mph 1009.7mb 75f
10:12pm 7 14 mph 1009.7mb 74f
10:06pm 8 13 mph 1009.7mb 74f
10:00pm 8 14 mph 1009.6mb -
9:54pm 8 14 mph 1009.6mb -
9:48pm 9 15 mph 1009.6mb 74f
9:42pm 9 14 mph 1009.6mb 74f
9:36pm 8 17 mph 1009.6mb 73f
9:30pm 10 17 mph 1009.7mb 73f
9:24pm 11 18 mph 1009.7mb 73f
9:18pm 11 16 mph 1009.7mb 73f
9:12pm 9 14 mph 1009.8mb 73f
9:06pm 9 14 mph 1009.8mb 73f
9:00pm 9 15 mph - 73f
8:54pm 9 13 mph - 74f
8:48pm 8 14 mph 1009.8mb 74f
8:42pm 8 14 mph 1009.8mb 74f
8:36pm 9 14 mph 1009.8mb 74f
8:30pm 8 11 mph 1009.8mb 75f
8:24pm 6 8 mph 1009.8mb 75f
8:18pm 6 11 mph 1009.8mb 76f
8:12pm 6 8 mph 1009.8mb 76f
8:06pm 6 9 mph 1009.7mb 77f
8:00pm 6 13 mph 1009.6mb 78f
7:54pm 5 13 mph 1009.6mb 79f
7:48pm 7 10 mph 1009.4mb 79f
7:42pm 7 10 mph 1009.4mb 80f
7:36pm 8 13 mph 1009.3mb 80f
7:30pm 9 14 mph 1009.2mb 79f
7:24pm 11 14 mph 1009.2mb 80f
7:18pm 11 15 mph - 81f
7:12pm 11 15 mph - 82f
7:06pm 11 17 mph - 84f
7:00pm 13 17 mph 1009.1mb 84f
6:54pm 9 15 mph 1009.1mb 85f
6:48pm 11 16 mph 1009.1mb 85f
6:42pm 11 15 mph 1009.1mb 85f
6:36pm 13 17 mph 1009.1mb 85f
6:30pm 11 16 mph 1009.1mb -
6:24pm 11 20 mph 1009.1mb -
6:18pm 11 15 mph 1009.2mb -
6:12pm 10 13 mph 1009.2mb -
6:06pm 10 16 mph 1009.2mb -
6:00pm 13 16 mph 1009.2mb 82f
5:54pm 13 16 mph 1009.2mb 81f
5:48pm 13 16 mph 1009.2mb 82f
5:42pm 14 17 mph 1009.2mb 82f
5:36pm 13 16 mph 1009.3mb 82f
5:30pm 11 16 mph 1009.4mb 82f
5:24pm 14 16 mph 1009.4mb 82f
5:18pm 13 16 mph 1009.5mb 83f
5:12pm 13 16 mph 1009.5mb 83f
5:06pm 14 16 mph 1009.6mb 83f
5:00pm 13 15 mph 1009.6mb 83f
4:54pm 14 16 mph 1009.5mb 83f
4:48pm 13 16 mph 1009.6mb 83f
4:42pm 14 16 mph 1009.6mb 83f
4:36pm 14 16 mph 1009.7mb 83f
4:00pm 14 17 mph 1010mb 83f
3:54pm 14 17 mph 1010mb 83f
3:48pm 14 16 mph 1010.1mb 83f
3:42pm 14 16 mph 1010.1mb 83f
3:36pm 14 16 mph 1010.2mb 82f
3:30pm 13 16 mph 1010.3mb 82f
3:24pm 11 15 mph 1010.4mb 82f
3:18pm 11 14 mph 1010.5mb 80f
3:12pm 11 15 mph 1010.6mb 81f
3:06pm 11 14 mph 1010.7mb 81f
3:00pm 11 15 mph 1010.7mb 81f
2:54pm 11 14 mph 1010.8mb 81f
2:48pm 9 14 mph 1010.8mb 81f
2:42pm 13 15 mph 1010.9mb 81f
2:36pm 13 15 mph 1010.9mb 80f
2:30pm 9 14 mph 1011mb 81f
2:24pm 10 14 mph 1011.1mb 81f
2:18pm 9 13 mph 1011.2mb 82f
2:12pm 10 11 mph 1011.3mb 81f
2:06pm 9 11 mph 1011.4mb 80f
2:00pm 7 9 mph 1011.5mb 81f
1:54pm 8 9 mph 1011.5mb 80f
1:48pm 7 9 mph 1011.6mb 79f
1:42pm 8 9 mph 1011.6mb 79f
1:36pm 8 9 mph 1011.7mb 79f
1:30pm 6 7 mph 1011.7mb 79f
1:24pm 6 7 mph 1011.8mb 79f
1:18pm 3 5 mph 1011.8mb 81f
1:12pm 5 6 mph 1011.9mb 80f
1:06pm 6 7 mph 1012mb 79f
1:00pm 6 7 mph 1012mb 79f
12:54pm 6 7 mph 1012.1mb 80f
12:48pm 6 7 mph 1012.2mb 79f
12:42pm 5 6 mph 1012.3mb 79f
12:36pm 5 6 mph 1012.3mb 80f
12:30pm 5 6 mph 1012.4mb 80f
12:24pm 5 6 mph 1012.5mb 80f
12:18pm 6
mph
1012.6mb 79f
12:12pm 6 7 mph 1012.6mb 78f
12:06pm 5 6 mph 1012.6mb 78f
12:00pm 5 6 mph 1012.7mb 77f
11:54am 5 6 mph 1012.8mb 78f
11:48am 2 5 mph 1012.8mb 77f
11:42am 3 6 mph 1012.9mb 78f
11:36am 5 6 mph 1012.9mb 78f
11:30am 5
mph
1012.9mb 77f
11:24am 5 6 mph 1013mb 76f
11:18am 6 7 mph 1013mb 76f
11:12am 6 7 mph 1013.1mb 77f
11:06am 5 6 mph 1013.1mb 75f
11:00am 5 6 mph 1013.1mb 77f
10:54am 2 5 mph 1013.1mb 76f
10:48am 3 5 mph 1013.1mb 75f
10:42am 5 7 mph 1013.1mb 75f
10:36am 6 7 mph 1013.1mb 75f
10:30am 5 7 mph 1013.1mb 76f
10:24am 5 7 mph 1013.1mb 75f
10:18am 6 7 mph 1013.1mb 74f
10:12am 7 8 mph 1013.1mb 75f
10:06am 6 8 mph 1013mb 75f
10:00am 6 8 mph 1013mb 75f
9:54am 6 8 mph 1013mb 74f
9:48am 6 8 mph 1013mb 75f
9:42am 6 9 mph 1013.1mb 74f
9:36am 8 9 mph 1013mb 74f
9:30am 6 10 mph 1013.1mb 74f
9:24am 8 9 mph 1013.1mb 73f
9:18am 7 9 mph 1013.1mb 73f
9:12am 6 8 mph 1013.1mb 73f
9:06am 7 10 mph 1013.1mb 72f
9:00am 7 10 mph 1013.1mb 72f
5:54am 10 15 mph 1012.1mb 67f
5:48am 8 15 mph 1012.1mb 67f
4:54am 10 14 mph 1011.9mb 68f
4:48am 11 15 mph 1011.9mb 68f
3:54am 11 17 mph 1011.6mb 69f
3:48am 13 16 mph 1011.6mb 69f
2:54am 10 15 mph 1011.6mb 70f
2:48am 10 17 mph 1011.6mb 70f